sensor_id;sensor_type;location;lat;lon;timestamp;P1;durP1;ratioP1;P2;durP2;ratioP2
70780;SDS011;72716;48.814;2.126;2024-03-08T00:01:05;18.23;;;15.13;;
70780;SDS011;72716;48.814;2.126;2024-03-08T00:03:31;21.05;;;16.30;;
70780;SDS011;72716;48.814;2.126;2024-03-08T00:05:57;18.10;;;15.25;;
70780;SDS011;72716;48.814;2.126;2024-03-08T00:08:23;18.83;;;15.43;;
70780;SDS011;72716;48.814;2.126;2024-03-08T00:10:48;19.75;;;16.45;;
70780;SDS011;72716;48.814;2.126;2024-03-08T00:13:14;20.23;;;16.52;;
70780;SDS011;72716;48.814;2.126;2024-03-08T00:15:39;19.33;;;15.68;;
70780;SDS011;72716;48.814;2.126;2024-03-08T00:18:06;17.67;;;14.40;;
70780;SDS011;72716;48.814;2.126;2024-03-08T00:20:31;17.65;;;15.32;;
70780;SDS011;72716;48.814;2.126;2024-03-08T00:22:57;17.75;;;15.48;;
70780;SDS011;72716;48.814;2.126;2024-03-08T00:25:23;18.15;;;16.17;;
70780;SDS011;72716;48.814;2.126;2024-03-08T00:27:48;21.08;;;17.02;;
70780;SDS011;72716;48.814;2.126;2024-03-08T00:30:20;17.20;;;14.13;;
70780;SDS011;72716;48.814;2.126;2024-03-08T00:32:48;18.63;;;16.58;;
70780;SDS011;72716;48.814;2.126;2024-03-08T00:35:13;21.52;;;16.38;;
70780;SDS011;72716;48.814;2.126;2024-03-08T00:37:39;21.48;;;17.45;;
70780;SDS011;72716;48.814;2.126;2024-03-08T00:40:06;17.05;;;14.35;;
70780;SDS011;72716;48.814;2.126;2024-03-08T00:42:34;19.48;;;16.20;;
70780;SDS011;72716;48.814;2.126;2024-03-08T00:44:59;19.42;;;16.27;;
70780;SDS011;72716;48.814;2.126;2024-03-08T00:47:25;18.77;;;15.98;;
70780;SDS011;72716;48.814;2.126;2024-03-08T00:49:50;18.17;;;15.15;;
70780;SDS011;72716;48.814;2.126;2024-03-08T00:52:16;20.10;;;16.92;;
70780;SDS011;72716;48.814;2.126;2024-03-08T00:54:43;20.63;;;15.82;;
70780;SDS011;72716;48.814;2.126;2024-03-08T00:57:08;19.60;;;15.98;;
70780;SDS011;72716;48.814;2.126;2024-03-08T00:59:34;19.08;;;16.48;;
70780;SDS011;72716;48.814;2.126;2024-03-08T01:01:59;19.60;;;15.73;;
70780;SDS011;72716;48.814;2.126;2024-03-08T01:04:25;21.08;;;16.13;;
70780;SDS011;72716;48.814;2.126;2024-03-08T01:06:54;18.25;;;15.63;;
70780;SDS011;72716;48.814;2.126;2024-03-08T01:09:21;19.98;;;16.15;;
70780;SDS011;72716;48.814;2.126;2024-03-08T01:11:47;18.73;;;15.30;;
70780;SDS011;72716;48.814;2.126;2024-03-08T01:14:12;21.73;;;16.52;;
70780;SDS011;72716;48.814;2.126;2024-03-08T01:16:38;17.13;;;14.57;;
70780;SDS011;72716;48.814;2.126;2024-03-08T01:19:03;20.45;;;16.30;;
70780;SDS011;72716;48.814;2.126;2024-03-08T01:21:28;19.98;;;16.25;;
70780;SDS011;72716;48.814;2.126;2024-03-08T01:23:54;19.92;;;16.42;;
70780;SDS011;72716;48.814;2.126;2024-03-08T01:26:19;22.60;;;16.42;;
70780;SDS011;72716;48.814;2.126;2024-03-08T01:28:44;21.08;;;16.13;;
70780;SDS011;72716;48.814;2.126;2024-03-08T01:31:10;19.45;;;15.95;;
70780;SDS011;72716;48.814;2.126;2024-03-08T01:33:35;21.15;;;17.02;;
70780;SDS011;72716;48.814;2.126;2024-03-08T01:36:00;21.67;;;16.73;;
70780;SDS011;72716;48.814;2.126;2024-03-08T01:38:26;19.13;;;15.88;;
70780;SDS011;72716;48.814;2.126;2024-03-08T01:40:51;20.45;;;15.93;;
70780;SDS011;72716;48.814;2.126;2024-03-08T01:43:26;20.83;;;16.02;;
70780;SDS011;72716;48.814;2.126;2024-03-08T01:45:59;21.02;;;15.65;;
70780;SDS011;72716;48.814;2.126;2024-03-08T01:48:25;19.10;;;15.75;;
70780;SDS011;72716;48.814;2.126;2024-03-08T01:50:51;20.95;;;17.42;;
70780;SDS011;72716;48.814;2.126;2024-03-08T01:53:19;22.08;;;17.08;;
70780;SDS011;72716;48.814;2.126;2024-03-08T01:55:46;20.30;;;16.75;;
70780;SDS011;72716;48.814;2.126;2024-03-08T01:58:13;21.92;;;17.55;;
70780;SDS011;72716;48.814;2.126;2024-03-08T02:00:42;22.02;;;17.15;;
70780;SDS011;72716;48.814;2.126;2024-03-08T02:03:09;21.50;;;17.30;;
70780;SDS011;72716;48.814;2.126;2024-03-08T02:05:36;20.38;;;16.15;;
70780;SDS011;72716;48.814;2.126;2024-03-08T02:08:03;21.65;;;16.98;;
70780;SDS011;72716;48.814;2.126;2024-03-08T02:10:32;20.05;;;16.05;;
70780;SDS011;72716;48.814;2.126;2024-03-08T02:12:58;24.58;;;18.17;;
70780;SDS011;72716;48.814;2.126;2024-03-08T02:15:24;23.77;;;17.55;;
70780;SDS011;72716;48.814;2.126;2024-03-08T02:17:49;22.98;;;16.48;;
70780;SDS011;72716;48.814;2.126;2024-03-08T02:20:14;18.85;;;15.77;;
70780;SDS011;72716;48.814;2.126;2024-03-08T02:22:40;22.33;;;17.02;;
70780;SDS011;72716;48.814;2.126;2024-03-08T02:25:05;24.45;;;16.92;;
70780;SDS011;72716;48.814;2.126;2024-03-08T02:27:32;21.65;;;16.75;;
70780;SDS011;72716;48.814;2.126;2024-03-08T02:29:58;23.05;;;16.95;;
70780;SDS011;72716;48.814;2.126;2024-03-08T02:32:23;22.35;;;17.70;;
70780;SDS011;72716;48.814;2.126;2024-03-08T02:34:49;21.08;;;16.55;;
70780;SDS011;72716;48.814;2.126;2024-03-08T02:37:15;23.85;;;18.25;;
70780;SDS011;72716;48.814;2.126;2024-03-08T02:39:41;23.67;;;17.15;;
70780;SDS011;72716;48.814;2.126;2024-03-08T02:42:06;20.38;;;15.85;;
70780;SDS011;72716;48.814;2.126;2024-03-08T02:44:32;23.77;;;18.02;;
70780;SDS011;72716;48.814;2.126;2024-03-08T02:46:58;21.75;;;16.83;;
70780;SDS011;72716;48.814;2.126;2024-03-08T02:49:24;25.50;;;18.67;;
70780;SDS011;72716;48.814;2.126;2024-03-08T02:51:51;22.90;;;17.73;;
70780;SDS011;72716;48.814;2.126;2024-03-08T02:54:17;21.95;;;17.48;;
70780;SDS011;72716;48.814;2.126;2024-03-08T02:56:42;25.17;;;17.15;;
70780;SDS011;72716;48.814;2.126;2024-03-08T02:59:07;25.08;;;17.85;;
70780;SDS011;72716;48.814;2.126;2024-03-08T03:01:33;25.05;;;18.35;;
70780;SDS011;72716;48.814;2.126;2024-03-08T03:04:00;23.92;;;18.30;;
70780;SDS011;72716;48.814;2.126;2024-03-08T03:06:25;21.05;;;16.85;;
70780;SDS011;72716;48.814;2.126;2024-03-08T03:08:51;22.33;;;18.35;;
70780;SDS011;72716;48.814;2.126;2024-03-08T03:11:16;23.48;;;17.60;;
70780;SDS011;72716;48.814;2.126;2024-03-08T03:13:42;24.10;;;18.25;;
70780;SDS011;72716;48.814;2.126;2024-03-08T03:16:16;26.77;;;18.73;;
70780;SDS011;72716;48.814;2.126;2024-03-08T03:18:43;22.05;;;16.98;;
70780;SDS011;72716;48.814;2.126;2024-03-08T03:21:08;24.48;;;18.67;;
70780;SDS011;72716;48.814;2.126;2024-03-08T03:23:34;24.85;;;17.95;;
70780;SDS011;72716;48.814;2.126;2024-03-08T03:25:59;24.48;;;17.50;;
70780;SDS011;72716;48.814;2.126;2024-03-08T03:28:25;25.88;;;19.20;;
70780;SDS011;72716;48.814;2.126;2024-03-08T03:30:51;25.48;;;18.40;;
70780;SDS011;72716;48.814;2.126;2024-03-08T03:33:18;25.63;;;18.92;;
70780;SDS011;72716;48.814;2.126;2024-03-08T03:35:43;25.13;;;18.35;;
70780;SDS011;72716;48.814;2.126;2024-03-08T03:38:09;23.05;;;17.60;;
70780;SDS011;72716;48.814;2.126;2024-03-08T10:58:33;9.57;;;8.57;;
70780;SDS011;72716;48.814;2.126;2024-03-08T11:01:00;10.45;;;8.38;;
70780;SDS011;72716;48.814;2.126;2024-03-08T11:06:17;9.65;;;8.43;;
70780;SDS011;72716;48.814;2.126;2024-03-08T11:08:46;10.30;;;9.30;;
70780;SDS011;72716;48.814;2.126;2024-03-08T11:13:52;10.07;;;9.07;;
70780;SDS011;72716;48.814;2.126;2024-03-08T11:18:50;9.40;;;8.45;;
70780;SDS011;72716;48.814;2.126;2024-03-08T11:21:18;9.30;;;8.40;;
70780;SDS011;72716;48.814;2.126;2024-03-08T11:23:46;8.85;;;7.90;;
70780;SDS011;72716;48.814;2.126;2024-03-08T11:26:30;9.23;;;8.27;;
70780;SDS011;72716;48.814;2.126;2024-03-08T11:29:22;10.07;;;9.07;;
70780;SDS011;72716;48.814;2.126;2024-03-08T11:34:53;9.93;;;8.40;;
70780;SDS011;72716;48.814;2.126;2024-03-08T11:37:20;8.88;;;7.95;;
70780;SDS011;72716;48.814;2.126;2024-03-08T11:39:52;10.20;;;8.35;;
70780;SDS011;72716;48.814;2.126;2024-03-08T11:42:23;11.07;;;8.25;;
70780;SDS011;72716;48.814;2.126;2024-03-08T11:44:51;8.00;;;7.20;;
70780;SDS011;72716;48.814;2.126;2024-03-08T11:47:17;7.80;;;7.10;;
70780;SDS011;72716;48.814;2.126;2024-03-08T11:49:43;8.43;;;7.53;;
70780;SDS011;72716;48.814;2.126;2024-03-08T11:52:13;10.35;;;7.30;;
70780;SDS011;72716;48.814;2.126;2024-03-08T11:54:47;7.68;;;6.95;;
70780;SDS011;72716;48.814;2.126;2024-03-08T11:57:19;7.45;;;6.65;;
70780;SDS011;72716;48.814;2.126;2024-03-08T11:59:53;8.32;;;7.43;;
70780;SDS011;72716;48.814;2.126;2024-03-08T12:02:20;8.02;;;7.22;;
70780;SDS011;72716;48.814;2.126;2024-03-08T12:04:45;7.90;;;7.13;;
70780;SDS011;72716;48.814;2.126;2024-03-08T12:07:11;7.25;;;6.47;;
70780;SDS011;72716;48.814;2.126;2024-03-08T12:09:39;6.72;;;6.03;;
70780;SDS011;72716;48.814;2.126;2024-03-08T12:12:06;6.57;;;5.88;;
70780;SDS011;72716;48.814;2.126;2024-03-08T12:14:33;6.63;;;5.53;;
70780;SDS011;72716;48.814;2.126;2024-03-08T12:16:59;7.10;;;5.95;;
70780;SDS011;72716;48.814;2.126;2024-03-08T12:19:26;7.38;;;6.63;;
70780;SDS011;72716;48.814;2.126;2024-03-08T12:21:53;6.80;;;5.32;;
70780;SDS011;72716;48.814;2.126;2024-03-08T12:24:19;5.22;;;4.72;;
70780;SDS011;72716;48.814;2.126;2024-03-08T12:26:45;6.78;;;5.82;;
70780;SDS011;72716;48.814;2.126;2024-03-08T12:31:42;6.97;;;5.60;;
70780;SDS011;72716;48.814;2.126;2024-03-08T12:34:08;6.00;;;5.35;;
70780;SDS011;72716;48.814;2.126;2024-03-08T12:36:35;11.55;;;5.40;;
70780;SDS011;72716;48.814;2.126;2024-03-08T12:39:01;6.07;;;5.47;;
70780;SDS011;72716;48.814;2.126;2024-03-08T12:41:28;5.85;;;5.25;;
70780;SDS011;72716;48.814;2.126;2024-03-08T12:43:54;5.70;;;4.97;;
70780;SDS011;72716;48.814;2.126;2024-03-08T12:46:21;5.70;;;5.20;;
70780;SDS011;72716;48.814;2.126;2024-03-08T12:48:47;7.50;;;4.75;;
70780;SDS011;72716;48.814;2.126;2024-03-08T12:51:13;5.55;;;4.88;;
70780;SDS011;72716;48.814;2.126;2024-03-08T12:53:40;5.55;;;4.30;;
70780;SDS011;72716;48.814;2.126;2024-03-08T12:56:09;4.63;;;4.20;;
70780;SDS011;72716;48.814;2.126;2024-03-08T12:58:35;6.00;;;4.60;;
70780;SDS011;72716;48.814;2.126;2024-03-08T13:01:02;5.28;;;4.63;;
70780;SDS011;72716;48.814;2.126;2024-03-08T13:03:32;5.47;;;4.27;;
70780;SDS011;72716;48.814;2.126;2024-03-08T13:05:59;4.25;;;3.80;;
70780;SDS011;72716;48.814;2.126;2024-03-08T13:08:25;3.90;;;3.45;;
70780;SDS011;72716;48.814;2.126;2024-03-08T13:10:52;4.30;;;3.90;;
70780;SDS011;72716;48.814;2.126;2024-03-08T13:13:18;4.60;;;4.10;;
70780;SDS011;72716;48.814;2.126;2024-03-08T13:15:44;6.15;;;4.38;;
70780;SDS011;72716;48.814;2.126;2024-03-08T13:18:10;5.18;;;3.92;;
70780;SDS011;72716;48.814;2.126;2024-03-08T13:20:36;5.15;;;4.40;;
70780;SDS011;72716;48.814;2.126;2024-03-08T13:23:04;6.45;;;4.53;;
70780;SDS011;72716;48.814;2.126;2024-03-08T13:25:30;5.57;;;4.25;;
70780;SDS011;72716;48.814;2.126;2024-03-08T13:27:56;5.05;;;3.58;;
70780;SDS011;72716;48.814;2.126;2024-03-08T13:30:24;4.72;;;3.53;;
70780;SDS011;72716;48.814;2.126;2024-03-08T13:32:54;5.55;;;3.80;;
70780;SDS011;72716;48.814;2.126;2024-03-08T13:35:19;4.25;;;3.75;;
70780;SDS011;72716;48.814;2.126;2024-03-08T13:37:49;5.03;;;4.22;;
70780;SDS011;72716;48.814;2.126;2024-03-08T13:40:16;5.22;;;4.28;;
70780;SDS011;72716;48.814;2.126;2024-03-08T13:42:44;4.95;;;4.10;;
70780;SDS011;72716;48.814;2.126;2024-03-08T13:45:16;4.15;;;3.75;;
70780;SDS011;72716;48.814;2.126;2024-03-08T13:47:47;5.35;;;4.47;;
70780;SDS011;72716;48.814;2.126;2024-03-08T13:50:14;5.95;;;4.28;;
70780;SDS011;72716;48.814;2.126;2024-03-08T13:55:11;4.18;;;3.53;;
70780;SDS011;72716;48.814;2.126;2024-03-08T13:57:37;5.32;;;4.07;;
70780;SDS011;72716;48.814;2.126;2024-03-08T14:00:03;5.20;;;3.63;;
70780;SDS011;72716;48.814;2.126;2024-03-08T14:02:29;4.78;;;3.20;;
70780;SDS011;72716;48.814;2.126;2024-03-08T14:04:56;4.75;;;3.45;;
70780;SDS011;72716;48.814;2.126;2024-03-08T14:07:22;6.03;;;3.83;;
70780;SDS011;72716;48.814;2.126;2024-03-08T14:09:48;4.82;;;3.35;;
70780;SDS011;72716;48.814;2.126;2024-03-08T14:12:14;3.75;;;2.92;;
70780;SDS011;72716;48.814;2.126;2024-03-08T14:14:40;3.53;;;2.95;;
70780;SDS011;72716;48.814;2.126;2024-03-08T14:17:07;3.55;;;3.22;;
70780;SDS011;72716;48.814;2.126;2024-03-08T14:19:34;4.07;;;3.20;;
70780;SDS011;72716;48.814;2.126;2024-03-08T14:22:00;3.40;;;2.95;;
70780;SDS011;72716;48.814;2.126;2024-03-08T14:24:29;3.28;;;2.70;;
70780;SDS011;72716;48.814;2.126;2024-03-08T14:26:54;3.97;;;2.40;;
70780;SDS011;72716;48.814;2.126;2024-03-08T14:29:20;4.05;;;2.65;;
70780;SDS011;72716;48.814;2.126;2024-03-08T14:31:45;2.88;;;2.63;;
70780;SDS011;72716;48.814;2.126;2024-03-08T14:34:11;4.57;;;2.30;;
70780;SDS011;72716;48.814;2.126;2024-03-08T14:36:36;3.08;;;2.10;;
70780;SDS011;72716;48.814;2.126;2024-03-08T14:39:03;3.17;;;2.20;;
70780;SDS011;72716;48.814;2.126;2024-03-08T14:41:28;2.60;;;1.70;;
70780;SDS011;72716;48.814;2.126;2024-03-08T14:43:54;4.97;;;2.22;;
70780;SDS011;72716;48.814;2.126;2024-03-08T14:46:21;2.30;;;1.65;;
70780;SDS011;72716;48.814;2.126;2024-03-08T14:48:48;2.28;;;1.77;;
70780;SDS011;72716;48.814;2.126;2024-03-08T14:51:23;2.53;;;1.30;;
70780;SDS011;72716;48.814;2.126;2024-03-08T14:53:51;1.70;;;1.48;;
70780;SDS011;72716;48.814;2.126;2024-03-08T14:56:20;3.88;;;1.52;;
70780;SDS011;72716;48.814;2.126;2024-03-08T14:58:46;2.97;;;1.88;;
70780;SDS011;72716;48.814;2.126;2024-03-08T15:01:14;1.70;;;1.50;;
70780;SDS011;72716;48.814;2.126;2024-03-08T15:03:40;3.28;;;1.58;;
70780;SDS011;72716;48.814;2.126;2024-03-08T15:06:05;2.00;;;1.60;;
70780;SDS011;72716;48.814;2.126;2024-03-08T15:08:33;2.70;;;1.48;;
70780;SDS011;72716;48.814;2.126;2024-03-08T15:10:59;3.28;;;1.60;;
70780;SDS011;72716;48.814;2.126;2024-03-08T15:13:25;2.95;;;1.60;;
70780;SDS011;72716;48.814;2.126;2024-03-08T15:15:58;1.40;;;1.23;;
70780;SDS011;72716;48.814;2.126;2024-03-08T15:18:24;2.78;;;1.45;;
70780;SDS011;72716;48.814;2.126;2024-03-08T15:20:51;1.90;;;1.48;;
70780;SDS011;72716;48.814;2.126;2024-03-08T15:23:18;2.53;;;1.33;;
70780;SDS011;72716;48.814;2.126;2024-03-08T15:25:44;2.45;;;1.58;;
70780;SDS011;72716;48.814;2.126;2024-03-08T15:28:14;1.98;;;1.42;;
70780;SDS011;72716;48.814;2.126;2024-03-08T15:30:45;2.92;;;1.60;;
70780;SDS011;72716;48.814;2.126;2024-03-08T15:33:12;2.47;;;1.50;;
70780;SDS011;72716;48.814;2.126;2024-03-08T15:35:40;2.20;;;1.58;;
70780;SDS011;72716;48.814;2.126;2024-03-08T15:38:06;2.05;;;1.27;;
70780;SDS011;72716;48.814;2.126;2024-03-08T15:40:31;3.67;;;1.60;;
70780;SDS011;72716;48.814;2.126;2024-03-08T15:43:00;3.25;;;1.60;;
70780;SDS011;72716;48.814;2.126;2024-03-08T15:45:26;3.30;;;1.42;;
70780;SDS011;72716;48.814;2.126;2024-03-08T15:47:57;2.22;;;1.38;;
70780;SDS011;72716;48.814;2.126;2024-03-08T15:50:23;3.80;;;1.67;;
70780;SDS011;72716;48.814;2.126;2024-03-08T15:52:48;2.70;;;1.33;;
70780;SDS011;72716;48.814;2.126;2024-03-08T15:55:15;2.33;;;1.45;;
70780;SDS011;72716;48.814;2.126;2024-03-08T15:57:50;3.25;;;1.95;;
70780;SDS011;72716;48.814;2.126;2024-03-08T16:00:16;4.07;;;1.65;;
70780;SDS011;72716;48.814;2.126;2024-03-08T16:03:04;3.15;;;1.38;;
70780;SDS011;72716;48.814;2.126;2024-03-08T16:05:36;1.95;;;1.40;;
70780;SDS011;72716;48.814;2.126;2024-03-08T16:08:02;2.45;;;1.23;;
70780;SDS011;72716;48.814;2.126;2024-03-08T16:10:27;1.73;;;1.20;;
70780;SDS011;72716;48.814;2.126;2024-03-08T16:12:57;1.55;;;1.27;;
70780;SDS011;72716;48.814;2.126;2024-03-08T16:15:22;1.73;;;1.20;;
70780;SDS011;72716;48.814;2.126;2024-03-08T16:17:48;2.05;;;1.58;;
70780;SDS011;72716;48.814;2.126;2024-03-08T16:20:16;2.80;;;1.35;;
70780;SDS011;72716;48.814;2.126;2024-03-08T16:22:45;3.30;;;1.30;;
70780;SDS011;72716;48.814;2.126;2024-03-08T16:25:16;1.88;;;1.35;;
70780;SDS011;72716;48.814;2.126;2024-03-08T16:27:45;3.88;;;1.65;;
70780;SDS011;72716;48.814;2.126;2024-03-08T16:30:12;2.70;;;1.75;;
70780;SDS011;72716;48.814;2.126;2024-03-08T16:32:43;4.22;;;1.65;;
70780;SDS011;72716;48.814;2.126;2024-03-08T16:35:11;2.03;;;1.40;;
70780;SDS011;72716;48.814;2.126;2024-03-08T16:37:37;1.85;;;1.42;;
70780;SDS011;72716;48.814;2.126;2024-03-08T16:40:05;2.90;;;1.33;;
70780;SDS011;72716;48.814;2.126;2024-03-08T16:42:31;1.90;;;1.55;;
70780;SDS011;72716;48.814;2.126;2024-03-08T16:44:56;2.97;;;1.40;;
70780;SDS011;72716;48.814;2.126;2024-03-08T16:47:22;3.42;;;1.88;;
70780;SDS011;72716;48.814;2.126;2024-03-08T16:49:50;2.13;;;1.85;;
70780;SDS011;72716;48.814;2.126;2024-03-08T16:52:16;3.17;;;2.33;;
70780;SDS011;72716;48.814;2.126;2024-03-08T16:54:42;2.65;;;1.58;;
70780;SDS011;72716;48.814;2.126;2024-03-08T16:57:08;2.47;;;1.63;;
70780;SDS011;72716;48.814;2.126;2024-03-08T16:59:38;2.67;;;1.90;;
70780;SDS011;72716;48.814;2.126;2024-03-08T17:02:03;2.40;;;1.73;;
70780;SDS011;72716;48.814;2.126;2024-03-08T17:04:30;2.53;;;1.60;;
70780;SDS011;72716;48.814;2.126;2024-03-08T17:06:56;2.80;;;1.52;;
70780;SDS011;72716;48.814;2.126;2024-03-08T17:09:24;2.08;;;1.40;;
70780;SDS011;72716;48.814;2.126;2024-03-08T17:11:52;1.98;;;1.70;;
70780;SDS011;72716;48.814;2.126;2024-03-08T17:14:17;2.28;;;1.60;;
70780;SDS011;72716;48.814;2.126;2024-03-08T17:16:43;3.45;;;2.95;;
70780;SDS011;72716;48.814;2.126;2024-03-08T17:19:09;2.58;;;2.05;;
70780;SDS011;72716;48.814;2.126;2024-03-08T17:21:34;2.53;;;1.40;;
70780;SDS011;72716;48.814;2.126;2024-03-08T17:24:00;2.45;;;1.55;;
70780;SDS011;72716;48.814;2.126;2024-03-08T17:26:26;2.65;;;2.00;;
70780;SDS011;72716;48.814;2.126;2024-03-08T17:28:53;3.05;;;1.27;;
70780;SDS011;72716;48.814;2.126;2024-03-08T17:31:18;2.88;;;1.85;;
70780;SDS011;72716;48.814;2.126;2024-03-08T17:33:46;3.33;;;1.80;;
70780;SDS011;72716;48.814;2.126;2024-03-08T17:36:12;2.00;;;1.67;;
70780;SDS011;72716;48.814;2.126;2024-03-08T17:38:40;2.58;;;2.20;;
70780;SDS011;72716;48.814;2.126;2024-03-08T17:41:11;2.70;;;2.30;;
70780;SDS011;72716;48.814;2.126;2024-03-08T17:43:41;2.30;;;2.05;;
70780;SDS011;72716;48.814;2.126;2024-03-08T17:46:07;3.05;;;2.50;;
70780;SDS011;72716;48.814;2.126;2024-03-08T17:48:33;4.10;;;2.20;;
70780;SDS011;72716;48.814;2.126;2024-03-08T17:50:58;6.22;;;2.65;;
70780;SDS011;72716;48.814;2.126;2024-03-08T17:53:26;4.00;;;2.78;;
70780;SDS011;72716;48.814;2.126;2024-03-08T17:55:51;7.07;;;6.40;;
70780;SDS011;72716;48.814;2.126;2024-03-08T17:58:19;3.67;;;2.63;;
70780;SDS011;72716;48.814;2.126;2024-03-08T18:00:44;2.65;;;2.38;;
70780;SDS011;72716;48.814;2.126;2024-03-08T18:03:11;2.45;;;2.05;;
70780;SDS011;72716;48.814;2.126;2024-03-08T18:05:37;3.30;;;2.13;;
70780;SDS011;72716;48.814;2.126;2024-03-08T18:08:06;3.30;;;2.67;;
70780;SDS011;72716;48.814;2.126;2024-03-08T18:10:32;2.67;;;2.03;;
70780;SDS011;72716;48.814;2.126;2024-03-08T18:12:59;4.72;;;2.05;;
70780;SDS011;72716;48.814;2.126;2024-03-08T18:15:37;2.63;;;2.10;;
70780;SDS011;72716;48.814;2.126;2024-03-08T18:18:04;2.03;;;1.75;;
70780;SDS011;72716;48.814;2.126;2024-03-08T18:20:33;2.67;;;2.20;;
70780;SDS011;72716;48.814;2.126;2024-03-08T18:22:59;6.35;;;5.65;;
70780;SDS011;72716;48.814;2.126;2024-03-08T18:25:28;3.90;;;2.97;;
70780;SDS011;72716;48.814;2.126;2024-03-08T18:27:59;2.65;;;2.10;;
70780;SDS011;72716;48.814;2.126;2024-03-08T18:30:26;3.33;;;2.10;;
70780;SDS011;72716;48.814;2.126;2024-03-08T18:32:52;2.25;;;2.00;;
70780;SDS011;72716;48.814;2.126;2024-03-08T18:35:18;11.38;;;8.55;;
70780;SDS011;72716;48.814;2.126;2024-03-08T18:37:47;4.65;;;3.17;;
70780;SDS011;72716;48.814;2.126;2024-03-08T18:40:15;11.75;;;9.85;;
70780;SDS011;72716;48.814;2.126;2024-03-08T18:42:43;4.85;;;2.90;;
70780;SDS011;72716;48.814;2.126;2024-03-08T18:45:12;6.68;;;4.10;;
70780;SDS011;72716;48.814;2.126;2024-03-08T18:47:40;8.48;;;7.68;;
70780;SDS011;72716;48.814;2.126;2024-03-08T18:50:07;7.25;;;6.55;;
70780;SDS011;72716;48.814;2.126;2024-03-08T18:52:34;6.72;;;6.10;;
70780;SDS011;72716;48.814;2.126;2024-03-08T18:55:01;3.45;;;2.55;;
70780;SDS011;72716;48.814;2.126;2024-03-08T18:57:27;4.20;;;3.67;;
70780;SDS011;72716;48.814;2.126;2024-03-08T18:59:52;8.85;;;7.95;;
70780;SDS011;72716;48.814;2.126;2024-03-08T19:02:18;4.40;;;3.88;;
70780;SDS011;72716;48.814;2.126;2024-03-08T19:04:47;5.07;;;3.92;;
70780;SDS011;72716;48.814;2.126;2024-03-08T19:07:13;16.85;;;15.18;;
70780;SDS011;72716;48.814;2.126;2024-03-08T19:09:39;4.07;;;2.63;;
70780;SDS011;72716;48.814;2.126;2024-03-08T19:12:07;2.55;;;2.35;;
70780;SDS011;72716;48.814;2.126;2024-03-08T19:14:38;7.55;;;5.05;;
70780;SDS011;72716;48.814;2.126;2024-03-08T19:17:04;2.53;;;2.22;;
70780;SDS011;72716;48.814;2.126;2024-03-08T19:19:36;3.33;;;2.40;;
70780;SDS011;72716;48.814;2.126;2024-03-08T19:22:03;4.78;;;3.97;;
70780;SDS011;72716;48.814;2.126;2024-03-08T19:24:30;5.20;;;4.65;;
70780;SDS011;72716;48.814;2.126;2024-03-08T19:26:59;3.22;;;2.85;;
70780;SDS011;72716;48.814;2.126;2024-03-08T19:29:26;2.75;;;2.28;;
70780;SDS011;72716;48.814;2.126;2024-03-08T19:31:52;4.13;;;3.55;;
70780;SDS011;72716;48.814;2.126;2024-03-08T19:34:17;9.52;;;8.40;;
70780;SDS011;72716;48.814;2.126;2024-03-08T19:36:43;5.75;;;4.18;;
70780;SDS011;72716;48.814;2.126;2024-03-08T19:39:10;7.82;;;5.65;;
70780;SDS011;72716;48.814;2.126;2024-03-08T19:41:38;5.43;;;2.72;;
70780;SDS011;72716;48.814;2.126;2024-03-08T19:44:04;2.22;;;1.88;;
70780;SDS011;72716;48.814;2.126;2024-03-08T19:46:32;6.47;;;4.22;;
70780;SDS011;72716;48.814;2.126;2024-03-08T19:49:05;8.75;;;6.38;;
70780;SDS011;72716;48.814;2.126;2024-03-08T19:51:31;8.57;;;5.90;;
70780;SDS011;72716;48.814;2.126;2024-03-08T19:53:58;8.98;;;6.10;;
70780;SDS011;72716;48.814;2.126;2024-03-08T19:56:23;2.47;;;2.10;;
70780;SDS011;72716;48.814;2.126;2024-03-08T19:58:49;6.18;;;5.18;;
70780;SDS011;72716;48.814;2.126;2024-03-08T20:01:14;5.40;;;3.80;;
70780;SDS011;72716;48.814;2.126;2024-03-08T20:03:40;6.80;;;4.38;;
70780;SDS011;72716;48.814;2.126;2024-03-08T20:06:05;2.50;;;1.92;;
70780;SDS011;72716;48.814;2.126;2024-03-08T20:08:31;2.00;;;1.77;;
70780;SDS011;72716;48.814;2.126;2024-03-08T20:10:56;7.32;;;5.60;;
70780;SDS011;72716;48.814;2.126;2024-03-08T20:13:27;6.40;;;4.83;;
70780;SDS011;72716;48.814;2.126;2024-03-08T20:15:52;5.32;;;3.80;;
70780;SDS011;72716;48.814;2.126;2024-03-08T20:18:18;3.38;;;2.47;;
70780;SDS011;72716;48.814;2.126;2024-03-08T20:20:44;3.67;;;3.10;;
70780;SDS011;72716;48.814;2.126;2024-03-08T20:23:13;5.72;;;5.22;;
70780;SDS011;72716;48.814;2.126;2024-03-08T20:25:38;6.63;;;2.22;;
70780;SDS011;72716;48.814;2.126;2024-03-08T20:28:09;2.60;;;2.23;;
70780;SDS011;72716;48.814;2.126;2024-03-08T20:30:35;2.35;;;1.60;;
70780;SDS011;72716;48.814;2.126;2024-03-08T20:33:01;1.42;;;1.20;;
70780;SDS011;72716;48.814;2.126;2024-03-08T20:35:29;1.30;;;1.02;;
70780;SDS011;72716;48.814;2.126;2024-03-08T20:37:58;1.20;;;1.10;;
70780;SDS011;72716;48.814;2.126;2024-03-08T20:40:25;5.40;;;3.20;;
70780;SDS011;72716;48.814;2.126;2024-03-08T20:42:54;2.03;;;1.60;;
70780;SDS011;72716;48.814;2.126;2024-03-08T20:45:20;2.05;;;1.75;;
70780;SDS011;72716;48.814;2.126;2024-03-08T20:47:45;1.40;;;1.13;;
70780;SDS011;72716;48.814;2.126;2024-03-08T20:50:12;1.30;;;1.15;;
70780;SDS011;72716;48.814;2.126;2024-03-08T20:52:41;2.45;;;1.88;;
70780;SDS011;72716;48.814;2.126;2024-03-08T20:55:08;1.85;;;1.75;;
70780;SDS011;72716;48.814;2.126;2024-03-08T20:57:38;2.70;;;2.13;;
70780;SDS011;72716;48.814;2.126;2024-03-08T21:00:10;2.75;;;2.15;;
70780;SDS011;72716;48.814;2.126;2024-03-08T21:02:44;10.20;;;6.70;;
70780;SDS011;72716;48.814;2.126;2024-03-08T21:05:10;3.22;;;2.10;;
70780;SDS011;72716;48.814;2.126;2024-03-08T21:07:36;5.05;;;3.63;;
70780;SDS011;72716;48.814;2.126;2024-03-08T21:10:02;3.15;;;1.98;;
70780;SDS011;72716;48.814;2.126;2024-03-08T21:12:28;3.80;;;2.80;;
70780;SDS011;72716;48.814;2.126;2024-03-08T21:14:53;2.25;;;2.00;;
70780;SDS011;72716;48.814;2.126;2024-03-08T21:17:19;1.92;;;1.73;;
70780;SDS011;72716;48.814;2.126;2024-03-08T21:19:46;8.30;;;7.60;;
70780;SDS011;72716;48.814;2.126;2024-03-08T21:22:13;2.05;;;1.85;;
70780;SDS011;72716;48.814;2.126;2024-03-08T21:24:38;5.20;;;4.60;;
70780;SDS011;72716;48.814;2.126;2024-03-08T21:27:03;1.40;;;0.80;;
70780;SDS011;72716;48.814;2.126;2024-03-08T21:29:29;5.82;;;4.47;;
70780;SDS011;72716;48.814;2.126;2024-03-08T21:31:54;1.02;;;0.93;;
70780;SDS011;72716;48.814;2.126;2024-03-08T21:34:19;2.38;;;1.85;;
70780;SDS011;72716;48.814;2.126;2024-03-08T21:36:46;3.67;;;2.00;;
70780;SDS011;72716;48.814;2.126;2024-03-08T21:39:11;2.33;;;1.80;;
70780;SDS011;72716;48.814;2.126;2024-03-08T21:41:37;1.73;;;1.25;;
70780;SDS011;72716;48.814;2.126;2024-03-08T21:44:03;1.23;;;1.05;;
70780;SDS011;72716;48.814;2.126;2024-03-08T21:46:28;2.15;;;2.05;;
70780;SDS011;72716;48.814;2.126;2024-03-08T21:48:54;2.70;;;2.45;;
70780;SDS011;72716;48.814;2.126;2024-03-08T21:51:20;2.42;;;1.75;;
70780;SDS011;72716;48.814;2.126;2024-03-08T21:53:46;1.45;;;1.35;;
70780;SDS011;72716;48.814;2.126;2024-03-08T21:56:12;1.20;;;1.10;;
70780;SDS011;72716;48.814;2.126;2024-03-08T21:58:38;0.57;;;0.52;;
70780;SDS011;72716;48.814;2.126;2024-03-08T22:01:05;0.57;;;0.57;;
70780;SDS011;72716;48.814;2.126;2024-03-08T22:03:34;0.88;;;0.63;;
70780;SDS011;72716;48.814;2.126;2024-03-08T22:06:00;0.73;;;0.60;;
70780;SDS011;72716;48.814;2.126;2024-03-08T22:08:29;0.95;;;0.90;;
70780;SDS011;72716;48.814;2.126;2024-03-08T22:10:56;0.57;;;0.50;;
70780;SDS011;72716;48.814;2.126;2024-03-08T22:13:24;2.28;;;0.47;;